createdAt,value
2022-08-03T14:55:21.485Z,3.65
2022-08-03T14:57:51.658Z,3.67
2022-08-03T15:00:22.104Z,3.75
2022-08-03T15:02:52.231Z,3.58
2022-08-03T15:05:22.368Z,3.33
2022-08-03T15:07:52.450Z,3.42
2022-08-03T15:10:22.863Z,3.90
2022-08-03T15:13:00.764Z,3.50
2022-08-03T15:15:30.729Z,4.35
2022-08-03T15:18:00.957Z,4.50
2022-08-03T15:20:42.974Z,4.63
2022-08-03T15:23:15.183Z,4.28
2022-08-03T15:26:29.553Z,3.75
2022-08-03T15:28:37.692Z,4.03
2022-08-03T15:31:09.134Z,4.03
2022-08-03T15:33:39.875Z,4.28
2022-08-03T15:36:10.161Z,4.13
2022-08-03T15:38:40.214Z,4.35
2022-08-03T15:41:13.783Z,4.47
2022-08-03T15:43:47.597Z,5.47
2022-08-03T15:46:33.040Z,5.40
2022-08-03T15:49:03.145Z,5.03
2022-08-03T15:51:33.107Z,4.88
2022-08-03T15:54:03.112Z,5.13
2022-08-03T15:56:34.740Z,4.30
2022-08-03T15:59:12.515Z,4.63
2022-08-03T16:01:44.397Z,4.70
2022-08-03T16:04:14.698Z,4.70
2022-08-03T16:06:44.960Z,4.90
2022-08-03T16:09:24.053Z,4.45
2022-08-03T16:12:05.511Z,4.18
2022-08-03T16:14:52.351Z,4.88
2022-08-03T16:17:23.983Z,4.22
2022-08-03T16:19:54.830Z,4.55
2022-08-03T16:22:26.278Z,4.33
2022-08-03T16:27:36.962Z,3.40
2022-08-03T16:30:21.793Z,3.05
2022-08-03T16:32:51.894Z,3.00
2022-08-03T16:35:21.908Z,3.00
2022-08-03T16:37:56.384Z,3.30
2022-08-03T16:40:28.504Z,2.67
2022-08-03T16:42:58.692Z,2.45
2022-08-03T16:45:29.066Z,2.47
2022-08-03T16:48:01.640Z,1.90
2022-08-03T16:50:37.997Z,2.63
2022-08-03T16:53:15.653Z,2.60
2022-08-03T16:55:53.411Z,2.45
2022-08-03T16:58:41.875Z,2.85
2022-08-03T17:01:21.618Z,2.53
2022-08-03T17:04:03.391Z,2.70
2022-08-03T17:06:45.064Z,2.63
2022-08-03T17:09:18.310Z,3.15
2022-08-03T17:11:53.267Z,2.70
2022-08-03T17:14:29.295Z,3.13
2022-08-03T17:17:03.760Z,3.28
2022-08-03T17:19:35.446Z,3.00
2022-08-03T17:22:20.268Z,3.17
2022-08-03T17:24:54.837Z,3.25
2022-08-03T17:28:48.090Z,2.90
2022-08-03T17:30:21.880Z,3.03
2022-08-03T17:32:57.522Z,3.08
2022-08-03T17:35:34.435Z,3.33
2022-08-03T17:38:12.064Z,3.05
2022-08-03T17:40:49.988Z,3.45
2022-08-03T17:44:13.974Z,2.95
2022-08-03T17:46:12.493Z,2.92
2022-08-03T17:48:43.714Z,2.73
2022-08-03T17:51:25.819Z,3.90
2022-08-03T17:54:03.488Z,3.78
2022-08-03T17:56:44.439Z,3.72
2022-08-03T17:59:50.779Z,3.45
2022-08-03T18:02:57.370Z,3.67
2022-08-03T18:06:11.660Z,3.75
2022-08-03T18:08:32.361Z,3.88
2022-08-03T18:11:09.575Z,3.25
2022-08-03T18:14:09.939Z,3.38
2022-08-03T18:16:54.740Z,3.70
2022-08-03T18:20:01.896Z,3.90
2022-08-03T18:22:16.349Z,3.85
2022-08-03T18:24:51.626Z,3.72
2022-08-03T18:27:24.048Z,3.65
2022-08-03T18:30:17.355Z,4.70
2022-08-03T18:33:00.469Z,4.05
2022-08-03T18:35:52.877Z,3.92
2022-08-03T18:38:24.429Z,4.23
2022-08-03T18:40:54.707Z,3.67
2022-08-03T18:43:47.495Z,3.83
2022-08-03T18:46:38.295Z,3.78
2022-08-03T18:49:29.188Z,3.63
2022-08-03T18:52:13.462Z,4.38
2022-08-03T18:55:06.554Z,3.90
2022-08-03T18:58:07.423Z,3.72
2022-08-03T19:00:53.982Z,3.92
2022-08-03T19:03:42.847Z,3.83
2022-08-03T19:06:26.681Z,4.10
2022-08-03T19:08:58.331Z,3.55
2022-08-03T19:12:12.335Z,4.22
2022-08-03T19:14:51.918Z,5.28
2022-08-03T19:17:29.225Z,4.07
2022-08-03T19:20:01.588Z,5.03
2022-08-03T19:22:33.050Z,4.55
2022-08-03T19:25:05.311Z,4.22
2022-08-03T19:27:36.507Z,4.43
2022-08-03T19:30:21.979Z,4.30
2022-08-03T19:32:57.483Z,4.18
2022-08-03T19:38:29.313Z,4.55
2022-08-03T19:41:06.421Z,4.85
2022-08-03T19:43:52.671Z,4.70
2022-08-03T19:46:30.300Z,4.38
2022-08-03T19:52:03.570Z,4.32
2022-08-03T19:54:45.749Z,4.97
2022-08-03T19:57:27.461Z,4.18
2022-08-03T19:59:59.011Z,5.13
2022-08-03T20:02:36.409Z,4.95
2022-08-03T20:05:14.843Z,4.68
2022-08-03T20:07:47.445Z,4.63
2022-08-03T20:10:20.270Z,4.97
2022-08-03T20:12:51.749Z,5.50
2022-08-03T20:18:17.024Z,5.30
2022-08-03T20:20:50.863Z,5.43
2022-08-03T20:23:22.706Z,4.82
2022-08-03T20:26:02.169Z,4.72
2022-08-03T20:28:50.089Z,5.18
2022-08-03T20:31:32.475Z,4.95
2022-08-03T20:34:07.442Z,5.45
2022-08-03T20:36:39.229Z,5.55
2022-08-03T20:39:09.274Z,5.32
2022-08-03T20:44:10.374Z,4.95
2022-08-03T20:46:53.478Z,5.03
2022-08-03T20:49:45.612Z,4.65
2022-08-03T20:52:18.589Z,4.90
2022-08-03T20:54:50.341Z,4.45
2022-08-03T20:57:22.801Z,4.50
2022-08-03T21:02:29.732Z,5.78
2022-08-03T21:05:03.048Z,4.97
2022-08-03T21:08:05.661Z,5.15
2022-08-03T21:13:03.003Z,4.05
2022-08-03T21:13:03.792Z,5.13
2022-08-03T21:13:08.184Z,5.30
2022-08-03T21:13:10.601Z,4.65
2022-08-03T21:13:49.357Z,5.57
2022-08-03T21:16:23.835Z,4.80
2022-08-03T21:18:55.203Z,5.47
2022-08-03T21:21:26.278Z,5.22
2022-08-03T21:23:57.618Z,4.93
2022-08-03T21:26:29.741Z,5.13
2022-08-03T21:28:59.902Z,5.25
2022-08-03T21:31:30.352Z,4.80
2022-08-03T21:34:04.273Z,4.85
2022-08-03T21:36:38.188Z,5.03
2022-08-03T21:39:11.284Z,5.50
2022-08-03T21:41:42.874Z,5.13
2022-08-03T21:44:13.642Z,5.03
2022-08-03T21:46:45.334Z,5.20
2022-08-03T21:50:07.691Z,7.15
2022-08-03T21:52:08.238Z,5.53
2022-08-03T21:54:44.674Z,6.40
2022-08-03T21:57:28.217Z,5.40
2022-08-03T22:00:04.409Z,6.13
2022-08-03T22:02:53.050Z,5.47
2022-08-03T22:05:28.827Z,5.93
2022-08-03T22:07:59.859Z,6.50
2022-08-03T22:10:31.019Z,5.82
2022-08-03T22:13:01.121Z,6.13
2022-08-03T22:15:31.226Z,6.13
2022-08-03T22:18:05.605Z,5.82
2022-08-03T22:20:35.895Z,5.60
2022-08-03T22:23:08.993Z,6.45
2022-08-03T22:25:42.048Z,6.95
2022-08-03T22:28:14.380Z,6.18
2022-08-03T22:30:45.735Z,6.30
2022-08-03T22:33:17.668Z,7.50
2022-08-03T22:35:51.929Z,8.93
2022-08-03T22:38:22.193Z,8.05
2022-08-03T22:40:53.108Z,8.07
2022-08-03T22:43:29.538Z,6.35
2022-08-03T22:46:11.197Z,7.28
2022-08-03T22:48:42.629Z,6.85
2022-08-03T22:51:12.933Z,7.32
2022-08-03T22:53:43.169Z,7.10
2022-08-03T22:56:14.082Z,6.43
2022-08-03T22:58:44.454Z,6.70
